Terminal Aerodrome Forecast
Issued by NWS Cleveland, OH

Home | Current Version | Previous Version | Text Only | Print | Product List | Glossary On
Versions: 1 2 3 4 5 6 7 8 9 10 11 12 13 14 15 16 17 18 19 20 21
000
FTUS41 KCLE 281100
TAFTOL
TAF
KTOL 281140Z 2812/2912 05005KT P6SM BKN040
      TEMPO 2812/2814 BKN030
     FM281700 05005KT P6SM FEW040 BKN250
     FM282300 VRB03KT P6SM BKN250
     FM290700 00000KT P6SM BKN100=

USA.gov is the U.S. government's official web portal to all federal, state and local government web resources and services.